createdAt,value
2023-12-14T00:00:42.425Z,11.02
2023-12-14T00:03:10.812Z,14.25
2023-12-14T00:05:39.158Z,13.11
2023-12-14T00:08:07.692Z,12.92
2023-12-14T00:10:36.107Z,12.73
2023-12-14T00:13:05.850Z,12.73
2023-12-14T00:15:32.883Z,14.06
2023-12-14T00:18:01.291Z,11.78
2023-12-14T00:20:29.742Z,13.49
2023-12-14T00:22:58.152Z,13.87
2023-12-14T00:25:26.572Z,11.78
2023-12-14T00:27:55.023Z,13.30
2023-12-14T00:30:23.457Z,12.16
2023-12-14T00:32:51.925Z,11.97
2023-12-14T00:35:20.271Z,14.25
2023-12-14T00:37:48.749Z,13.30
2023-12-14T00:40:17.018Z,15.39
2023-12-14T00:42:45.476Z,14.44
2023-12-14T00:45:14.077Z,14.63
2023-12-14T00:47:42.301Z,14.06
2023-12-14T00:50:10.950Z,15.39
2023-12-14T00:52:39.203Z,14.63
2023-12-14T00:55:07.991Z,14.82
2023-12-14T00:57:36.082Z,15.20
2023-12-14T01:00:06.450Z,13.87
2023-12-14T01:02:36.420Z,16.15
2023-12-14T01:05:07.097Z,16.34
2023-12-14T01:07:37.177Z,15.96
2023-12-14T01:10:07.890Z,14.82
2023-12-14T01:12:38.429Z,17.48
2023-12-14T01:15:09.179Z,17.10
2023-12-14T01:17:39.247Z,16.34
2023-12-14T01:20:12.381Z,16.15
2023-12-14T01:22:42.346Z,17.29
2023-12-14T01:25:12.459Z,17.86
2023-12-14T01:27:42.299Z,15.77
2023-12-14T01:30:12.625Z,16.91
2023-12-14T01:32:42.498Z,15.01
2023-12-14T01:35:10.932Z,15.96
2023-12-14T01:37:39.432Z,16.34
2023-12-14T01:40:11.660Z,16.53
2023-12-14T01:42:39.212Z,17.29
2023-12-14T01:45:08.221Z,15.96
2023-12-14T01:47:35.934Z,13.49
2023-12-14T01:50:05.041Z,14.82
2023-12-14T01:52:33.028Z,16.53
2023-12-14T01:55:03.744Z,15.01
2023-12-14T01:57:33.619Z,15.96
2023-12-14T02:00:03.603Z,13.68
2023-12-14T02:02:36.870Z,15.58
2023-12-14T02:05:07.373Z,12.54
2023-12-14T02:07:37.207Z,12.92
2023-12-14T02:10:07.780Z,11.40
2023-12-14T02:12:37.645Z,12.35
2023-12-14T02:15:08.408Z,13.11
2023-12-14T02:17:38.254Z,11.78
2023-12-14T02:20:11.857Z,12.73
2023-12-14T02:22:51.672Z,11.97
2023-12-14T02:25:23.166Z,11.97
2023-12-14T02:27:53.069Z,12.73
2023-12-14T02:30:22.981Z,12.54
2023-12-14T02:32:52.896Z,12.35
2023-12-14T02:35:23.812Z,12.35
2023-12-14T02:37:53.605Z,12.73
2023-12-14T02:40:23.466Z,12.73
2023-12-14T02:42:52.608Z,13.11
2023-12-14T02:45:20.252Z,12.16
2023-12-14T02:47:51.198Z,12.35
2023-12-14T02:50:20.089Z,10.64
2023-12-14T02:52:48.514Z,11.40
2023-12-14T02:55:16.926Z,10.64
2023-12-14T02:57:46.029Z,11.97
2023-12-14T03:00:14.730Z,11.21
2023-12-14T03:02:42.229Z,12.16
2023-12-14T03:05:11.083Z,11.59
2023-12-14T03:07:39.128Z,11.02
2023-12-14T03:10:08.609Z,10.45
2023-12-14T03:12:36.144Z,10.83
2023-12-14T03:15:04.873Z,12.35
2023-12-14T03:17:32.609Z,11.21
2023-12-14T03:20:01.194Z,11.78
2023-12-14T03:22:29.491Z,10.26
2023-12-14T03:24:57.834Z,10.64
2023-12-14T03:27:26.435Z,10.83
2023-12-14T03:29:54.766Z,11.59
2023-12-14T03:32:23.240Z,9.50
2023-12-14T03:34:51.594Z,10.26
2023-12-14T03:37:19.973Z,10.26
2023-12-14T03:39:48.453Z,11.40
2023-12-14T03:42:16.801Z,12.16
2023-12-14T03:44:45.118Z,12.54
2023-12-14T03:47:13.730Z,11.97
2023-12-14T03:49:42.083Z,13.68
2023-12-14T03:52:10.843Z,11.97
2023-12-14T03:54:38.897Z,11.59
2023-12-14T03:57:07.319Z,12.35
2023-12-14T03:59:40.187Z,13.30
2023-12-14T04:02:10.141Z,11.78
2023-12-14T04:04:41.396Z,12.73
2023-12-14T04:07:11.117Z,12.73
2023-12-14T04:09:41.034Z,12.16
2023-12-14T04:12:10.883Z,11.97
2023-12-14T04:14:40.661Z,11.97
2023-12-14T04:17:10.808Z,12.92
2023-12-14T04:19:40.768Z,12.92
2023-12-14T04:22:10.764Z,12.92
2023-12-14T04:24:39.193Z,12.16
2023-12-14T04:27:07.477Z,13.68
2023-12-14T04:29:36.029Z,12.35
2023-12-14T04:32:05.024Z,14.06
2023-12-14T04:34:32.967Z,13.30
2023-12-14T04:37:01.213Z,12.73
2023-12-14T04:39:29.616Z,10.26
2023-12-14T04:41:58.078Z,12.54
2023-12-14T04:44:26.508Z,12.35
2023-12-14T04:46:55.091Z,12.54
2023-12-14T04:49:23.373Z,12.16
2023-12-14T04:51:52.003Z,12.92
2023-12-14T04:54:20.220Z,12.16
2023-12-14T04:56:49.024Z,11.02
2023-12-14T04:59:17.270Z,12.16
2023-12-14T05:01:45.619Z,11.59
2023-12-14T05:04:14.021Z,12.54
2023-12-14T05:06:42.497Z,10.26
2023-12-14T05:09:12.717Z,11.59
2023-12-14T05:11:42.214Z,10.83
2023-12-14T05:14:10.712Z,10.45
2023-12-14T05:16:39.118Z,12.35
2023-12-14T05:19:07.616Z,10.45
2023-12-14T05:21:35.934Z,10.07
2023-12-14T05:24:04.530Z,11.97
2023-12-14T05:26:32.951Z,9.88
2023-12-14T05:29:01.470Z,9.88
2023-12-14T05:31:29.703Z,11.21
2023-12-14T05:33:58.237Z,10.07
2023-12-14T05:36:26.518Z,10.64
2023-12-14T05:38:55.056Z,10.07
2023-12-14T05:41:23.447Z,9.88
2023-12-14T05:43:51.896Z,10.07
2023-12-14T05:46:24.290Z,10.26
2023-12-14T05:48:54.121Z,9.50
2023-12-14T05:51:32.061Z,11.02
2023-12-14T05:54:02.240Z,11.40
2023-12-14T05:56:32.072Z,10.26
2023-12-14T05:59:02.352Z,9.31
2023-12-14T06:01:32.396Z,11.97
2023-12-14T06:04:03.464Z,10.83
2023-12-14T06:06:33.320Z,10.26
2023-12-14T06:09:03.629Z,9.69
2023-12-14T06:11:33.511Z,9.12
2023-12-14T06:14:03.283Z,10.83
2023-12-14T06:16:33.346Z,9.31
2023-12-14T06:19:01.607Z,9.12
2023-12-14T06:21:29.945Z,8.74
2023-12-14T06:24:00.220Z,12.35
2023-12-14T06:26:29.824Z,8.74
2023-12-14T06:28:58.224Z,10.64
2023-12-14T06:31:26.583Z,9.50
2023-12-14T06:33:57.427Z,8.74
2023-12-14T06:36:31.097Z,9.12
2023-12-14T06:39:02.276Z,11.21
2023-12-14T06:41:32.222Z,9.31
2023-12-14T06:44:01.997Z,10.83
2023-12-14T06:46:31.904Z,10.07
2023-12-14T06:49:01.784Z,10.64
2023-12-14T06:51:31.632Z,8.93
2023-12-14T06:54:01.795Z,9.50
2023-12-14T06:56:31.586Z,11.02
2023-12-14T06:59:01.400Z,11.02
2023-12-14T07:01:31.452Z,10.26
2023-12-14T07:03:59.636Z,9.31
2023-12-14T07:06:28.042Z,8.74
2023-12-14T07:08:56.677Z,9.69
2023-12-14T07:11:24.899Z,9.88
2023-12-14T07:13:53.249Z,10.07
2023-12-14T07:16:21.697Z,9.69
2023-12-14T07:18:50.261Z,9.12
2023-12-14T07:21:18.498Z,9.88
2023-12-14T07:23:46.959Z,10.45
2023-12-14T07:26:15.488Z,10.26
2023-12-14T07:28:43.751Z,9.69
2023-12-14T07:31:12.311Z,8.93
2023-12-14T07:33:40.700Z,9.88
2023-12-14T07:36:09.223Z,8.36
2023-12-14T07:38:37.454Z,10.07
2023-12-14T07:42:43.874Z,10.45
2023-12-14T07:45:13.850Z,10.83
2023-12-14T07:47:43.960Z,10.64
2023-12-14T07:50:14.135Z,11.59
2023-12-14T07:52:44.253Z,10.45
2023-12-14T07:55:18.417Z,13.11
2023-12-14T07:57:48.234Z,12.16
2023-12-14T08:00:19.363Z,12.54
2023-12-14T08:02:49.242Z,11.78
2023-12-14T08:05:19.168Z,11.59
2023-12-14T08:07:48.672Z,12.35
2023-12-14T08:10:16.049Z,12.92
2023-12-14T08:12:44.305Z,12.73
2023-12-14T08:15:13.475Z,13.49
2023-12-14T08:17:42.466Z,13.68
2023-12-14T08:20:12.999Z,13.68
2023-12-14T08:22:45.782Z,15.58
2023-12-14T08:25:16.561Z,13.87
2023-12-14T08:27:46.434Z,14.25
2023-12-14T08:30:16.710Z,14.25
2023-12-14T08:32:46.572Z,14.44
2023-12-14T08:35:16.674Z,15.01
2023-12-14T08:37:46.566Z,12.73
2023-12-14T08:40:16.379Z,11.97
2023-12-14T08:42:48.711Z,12.92
2023-12-14T08:45:18.560Z,14.44
2023-12-14T08:47:48.376Z,12.73
2023-12-14T08:50:19.189Z,12.35
2023-12-14T08:52:47.129Z,12.73
2023-12-14T08:55:15.540Z,14.82
2023-12-14T08:57:43.534Z,15.01
2023-12-14T09:00:17.108Z,11.78
2023-12-14T09:02:47.361Z,13.87
2023-12-14T09:05:17.778Z,14.63
2023-12-14T09:07:48.841Z,14.63
2023-12-14T09:10:18.728Z,14.25
2023-12-14T09:12:48.648Z,14.44
2023-12-14T09:15:18.724Z,16.15
2023-12-14T09:17:48.621Z,16.34
2023-12-14T09:20:18.662Z,15.01
2023-12-14T09:22:48.638Z,15.77
2023-12-14T09:25:19.205Z,16.53
2023-12-14T09:27:49.203Z,16.34
2023-12-14T09:30:19.119Z,17.48
2023-12-14T09:32:49.750Z,15.20
2023-12-14T09:35:19.968Z,16.91
2023-12-14T09:37:50.918Z,15.96
2023-12-14T09:43:10.001Z,13.49
2023-12-14T09:45:43.142Z,16.53
2023-12-14T09:48:16.938Z,18.24
2023-12-14T09:50:46.071Z,15.77
2023-12-14T09:53:16.211Z,15.96
2023-12-14T09:55:46.203Z,15.77
2023-12-14T09:58:16.173Z,17.48
2023-12-14T10:00:46.310Z,18.24
2023-12-14T10:03:29.276Z,15.96
2023-12-14T10:06:03.454Z,15.39
2023-12-14T10:08:33.722Z,17.10
2023-12-14T10:11:16.607Z,16.34
2023-12-14T10:13:45.519Z,15.96
2023-12-14T10:16:29.973Z,16.72
2023-12-14T10:18:59.587Z,16.15
2023-12-14T10:21:29.719Z,17.48
2023-12-14T10:23:59.708Z,15.39
2023-12-14T10:26:28.995Z,17.10
2023-12-14T10:28:58.886Z,15.77
2023-12-14T10:31:29.828Z,16.53
2023-12-14T10:33:59.426Z,16.15
2023-12-14T10:36:29.832Z,15.77
2023-12-14T10:39:02.353Z,15.96
2023-12-14T10:41:33.382Z,14.82
2023-12-14T10:44:19.071Z,15.39
2023-12-14T10:46:57.662Z,13.87
2023-12-14T10:49:30.100Z,15.77
2023-12-14T10:52:01.550Z,16.34
2023-12-14T10:54:37.501Z,15.39
2023-12-14T10:57:09.601Z,14.82
2023-12-14T10:59:39.579Z,14.25
2023-12-14T11:02:11.344Z,14.44
2023-12-14T11:05:10.895Z,14.06
2023-12-14T11:07:54.837Z,13.87
2023-12-14T11:10:28.665Z,14.44
2023-12-14T11:13:12.296Z,13.49
2023-12-14T11:15:41.379Z,13.87
2023-12-14T11:18:11.652Z,14.25
2023-12-14T11:21:02.857Z,15.58
2023-12-14T11:23:40.362Z,16.53
2023-12-14T11:26:11.697Z,15.20
2023-12-14T11:28:46.658Z,15.39
2023-12-14T11:31:17.708Z,16.53
2023-12-14T11:33:49.176Z,15.39
2023-12-14T11:36:19.620Z,15.77
2023-12-14T11:38:52.136Z,15.96
2023-12-14T11:41:23.411Z,16.15
2023-12-14T11:43:53.467Z,16.72
2023-12-14T11:46:23.676Z,15.77
2023-12-14T11:48:53.778Z,16.15
2023-12-14T11:51:24.401Z,16.15
2023-12-14T11:53:54.316Z,15.77
2023-12-14T11:56:25.994Z,18.05
2023-12-14T11:58:56.504Z,16.34
2023-12-14T12:01:28.968Z,17.29
2023-12-14T12:04:11.901Z,15.96
2023-12-14T12:06:42.251Z,17.10
2023-12-14T12:09:12.037Z,17.86
2023-12-14T12:11:42.261Z,15.96
2023-12-14T12:14:12.278Z,16.53
2023-12-14T12:16:42.331Z,17.86
2023-12-14T12:19:12.281Z,18.62
2023-12-14T12:21:42.119Z,19.57
2023-12-14T12:24:22.203Z,18.24
2023-12-14T12:26:57.152Z,17.29
2023-12-14T12:29:27.269Z,19.00
2023-12-14T12:31:57.801Z,18.05
2023-12-14T12:34:27.723Z,18.81
2023-12-14T12:36:58.983Z,16.91
2023-12-14T12:39:29.635Z,16.15
2023-12-14T12:41:59.644Z,18.24
2023-12-14T12:44:29.476Z,18.24
2023-12-14T12:47:08.400Z,17.29
2023-12-14T12:49:42.044Z,16.53
2023-12-14T12:52:12.223Z,16.53
2023-12-14T12:54:42.201Z,17.10
2023-12-14T12:57:12.104Z,16.53
2023-12-14T12:59:42.015Z,17.48
2023-12-14T13:02:11.890Z,17.48
2023-12-14T13:04:42.125Z,16.15
2023-12-14T13:07:13.174Z,16.91
2023-12-14T13:09:43.232Z,17.67
2023-12-14T13:12:13.132Z,19.38
2023-12-14T13:14:42.980Z,16.72
2023-12-14T13:17:12.903Z,19.00
2023-12-14T13:19:41.388Z,16.53
2023-12-14T13:22:12.150Z,18.81
2023-12-14T13:24:41.190Z,18.05
2023-12-14T13:27:09.509Z,17.86
2023-12-14T13:29:38.014Z,17.29
2023-12-14T13:32:06.630Z,17.67
2023-12-14T13:34:34.734Z,15.77
2023-12-14T13:37:05.803Z,17.29
2023-12-14T13:39:38.793Z,18.05
2023-12-14T13:42:08.716Z,18.43
2023-12-14T13:44:38.628Z,18.43
2023-12-14T13:47:08.743Z,16.53
2023-12-14T13:49:38.904Z,16.72
2023-12-14T13:52:08.648Z,17.48
2023-12-14T13:54:38.561Z,18.05
2023-12-14T13:57:08.419Z,17.10
2023-12-14T13:59:38.376Z,19.19
2023-12-14T14:02:08.398Z,19.00
2023-12-14T14:04:38.326Z,18.05
2023-12-14T14:07:08.228Z,19.57
2023-12-14T14:09:38.140Z,18.62
2023-12-14T14:12:08.783Z,19.95
2023-12-14T14:14:38.684Z,19.57
2023-12-14T14:17:08.884Z,19.57
2023-12-14T14:19:38.933Z,18.05
2023-12-14T14:22:09.659Z,19.76
2023-12-14T14:24:39.579Z,20.33
2023-12-14T14:27:09.519Z,19.57
2023-12-14T14:29:39.389Z,19.00
2023-12-14T14:32:09.379Z,18.24
2023-12-14T14:34:39.520Z,17.29
2023-12-14T14:37:09.976Z,18.05
2023-12-14T14:39:44.108Z,18.81
2023-12-14T14:42:14.034Z,18.24
2023-12-14T14:44:44.041Z,19.38
2023-12-14T14:47:15.018Z,18.24
2023-12-14T14:49:45.463Z,17.67
2023-12-14T14:52:16.510Z,18.81
2023-12-14T14:54:43.877Z,18.05
2023-12-14T14:57:12.297Z,18.43
2023-12-14T14:59:40.697Z,19.38
2023-12-14T15:02:09.172Z,19.00
2023-12-14T15:04:37.587Z,19.00
2023-12-14T15:07:06.013Z,19.57
2023-12-14T15:09:34.568Z,14.63
2023-12-14T15:12:03.501Z,16.34
2023-12-14T15:14:31.224Z,17.10
2023-12-14T15:16:59.758Z,17.48
2023-12-14T15:19:27.952Z,16.91
2023-12-14T15:21:56.616Z,19.00
2023-12-14T15:24:23.841Z,17.67
2023-12-14T15:26:52.656Z,19.57
2023-12-14T15:29:22.394Z,17.29
2023-12-14T15:31:53.889Z,16.53
2023-12-14T15:34:23.844Z,17.48
2023-12-14T15:36:53.642Z,17.29
2023-12-14T15:39:23.773Z,16.72
2023-12-14T15:41:53.864Z,17.10
2023-12-14T15:44:24.131Z,16.72
2023-12-14T15:46:54.177Z,17.67
2023-12-14T15:49:24.135Z,18.81
2023-12-14T15:51:58.719Z,16.91
2023-12-14T15:54:28.789Z,19.19
2023-12-14T15:56:59.767Z,16.91
2023-12-14T15:59:28.482Z,18.24
2023-12-14T16:01:55.570Z,17.10
2023-12-14T16:04:23.915Z,17.10
2023-12-14T16:06:52.842Z,18.24
2023-12-14T16:09:20.750Z,15.39
2023-12-14T16:11:49.243Z,16.15
2023-12-14T16:14:17.900Z,16.91
2023-12-14T16:16:46.121Z,16.53
2023-12-14T16:19:14.670Z,16.53
2023-12-14T16:21:42.941Z,17.10
2023-12-14T16:24:11.475Z,17.67
2023-12-14T16:26:43.023Z,15.39
2023-12-14T16:29:11.270Z,15.96
2023-12-14T16:31:43.718Z,16.72
2023-12-14T16:34:15.155Z,16.34
2023-12-14T16:36:49.575Z,15.96
2023-12-14T16:39:19.474Z,15.77
2023-12-14T16:41:49.472Z,16.34
2023-12-14T16:44:19.683Z,17.10
2023-12-14T16:46:49.716Z,17.67
2023-12-14T16:49:18.167Z,16.53
2023-12-14T16:51:46.496Z,17.67
2023-12-14T16:54:15.222Z,17.86
2023-12-14T16:56:44.176Z,18.62
2023-12-14T16:59:15.386Z,17.29
2023-12-14T17:01:43.467Z,16.91
2023-12-14T17:04:11.551Z,15.96
2023-12-14T17:06:41.875Z,17.86
2023-12-14T17:09:12.480Z,17.86
2023-12-14T17:11:42.693Z,17.29
2023-12-14T17:14:14.154Z,15.58
2023-12-14T17:16:48.145Z,16.34
2023-12-14T17:19:18.064Z,16.34
2023-12-14T17:21:48.045Z,17.48
2023-12-14T17:24:18.216Z,18.62
2023-12-14T17:26:48.070Z,17.48
2023-12-14T17:29:18.030Z,17.67
2023-12-14T17:31:47.946Z,24.32
2023-12-14T17:34:18.041Z,27.93
2023-12-14T17:36:46.345Z,21.66
2023-12-14T17:39:14.846Z,20.90
2023-12-14T17:41:47.526Z,19.19
2023-12-14T17:44:14.685Z,20.33
2023-12-14T17:46:43.730Z,20.33
2023-12-14T17:49:12.444Z,20.90
2023-12-14T17:51:42.380Z,19.95
2023-12-14T17:54:13.254Z,19.00
2023-12-14T17:56:43.306Z,17.48
2023-12-14T17:59:13.226Z,18.24
2023-12-14T18:01:47.514Z,17.48
2023-12-14T18:04:17.364Z,17.10
2023-12-14T18:06:48.600Z,18.43
2023-12-14T18:09:21.602Z,16.91
2023-12-14T18:11:51.426Z,16.91
2023-12-14T18:14:21.258Z,19.19
2023-12-14T18:16:51.159Z,18.81
2023-12-14T18:19:21.190Z,19.38
2023-12-14T18:21:51.095Z,17.10
2023-12-14T18:24:22.135Z,18.05
2023-12-14T18:26:52.144Z,16.15
2023-12-14T18:29:22.110Z,14.82
2023-12-14T18:31:52.159Z,14.25
2023-12-14T18:34:22.194Z,15.20
2023-12-14T18:36:52.199Z,15.96
2023-12-14T18:39:22.005Z,14.44
2023-12-14T18:41:51.803Z,14.63
2023-12-14T18:44:21.748Z,16.15
2023-12-14T18:46:51.654Z,17.10
2023-12-14T18:49:21.706Z,13.68
2023-12-14T18:51:51.604Z,15.39
2023-12-14T18:54:21.968Z,15.58
2023-12-14T18:56:51.844Z,15.96
2023-12-14T18:59:22.593Z,15.20
2023-12-14T19:01:52.984Z,15.58
2023-12-14T19:04:23.031Z,15.77
2023-12-14T19:06:52.990Z,15.39
2023-12-14T19:09:21.492Z,14.63
2023-12-14T19:11:51.845Z,15.96
2023-12-14T19:14:21.177Z,16.91
2023-12-14T19:16:51.043Z,16.53
2023-12-14T19:19:19.287Z,17.86
2023-12-14T19:21:48.080Z,17.29
2023-12-14T19:24:18.698Z,15.77
2023-12-14T19:26:48.903Z,15.77
2023-12-14T19:29:18.845Z,14.44
2023-12-14T19:31:49.100Z,15.20
2023-12-14T19:34:18.962Z,15.01
2023-12-14T19:36:48.981Z,13.68
2023-12-14T19:39:20.105Z,15.58
2023-12-14T19:41:52.106Z,13.49
2023-12-14T19:44:22.557Z,16.34
2023-12-14T19:46:53.796Z,16.53
2023-12-14T19:49:23.931Z,16.53
2023-12-14T19:51:53.933Z,17.67
2023-12-14T19:54:22.405Z,15.39
2023-12-14T19:56:51.321Z,17.10
2023-12-14T19:59:20.473Z,14.63
2023-12-14T20:01:47.723Z,15.20
2023-12-14T20:04:17.765Z,15.96
2023-12-14T20:06:48.079Z,14.63
2023-12-14T20:09:17.959Z,15.20
2023-12-14T20:11:49.301Z,15.77
2023-12-14T20:14:19.147Z,15.20
2023-12-14T20:16:49.872Z,15.20
2023-12-14T20:19:19.857Z,16.53
2023-12-14T20:21:49.816Z,16.15
2023-12-14T20:24:19.743Z,15.96
2023-12-14T20:26:49.585Z,15.77
2023-12-14T20:29:19.441Z,16.91
2023-12-14T20:31:47.922Z,15.01
2023-12-14T20:34:16.433Z,15.01
2023-12-14T20:36:44.980Z,17.48
2023-12-14T20:39:13.154Z,17.48
2023-12-14T20:41:41.550Z,19.00
2023-12-14T20:44:09.966Z,20.90
2023-12-14T20:46:38.377Z,19.38
2023-12-14T20:49:06.800Z,16.72
2023-12-14T20:51:35.209Z,16.53
2023-12-14T20:54:03.743Z,16.15
2023-12-14T20:56:32.848Z,15.01
2023-12-14T20:59:00.584Z,15.77
2023-12-14T21:01:32.508Z,14.82
2023-12-14T21:04:00.845Z,15.20
2023-12-14T21:06:32.722Z,16.34
2023-12-14T21:09:03.204Z,16.53
2023-12-14T21:11:33.464Z,17.67
2023-12-14T21:14:03.321Z,16.91
2023-12-14T21:16:33.151Z,17.29
2023-12-14T21:19:03.662Z,15.77
2023-12-14T21:21:33.611Z,16.53
2023-12-14T21:24:04.614Z,17.29
2023-12-14T21:26:37.476Z,15.58
2023-12-14T21:29:07.563Z,15.58
2023-12-14T21:31:37.682Z,15.96
2023-12-14T21:34:08.906Z,15.58
2023-12-14T21:36:37.418Z,15.58
2023-12-14T21:39:06.061Z,15.77
2023-12-14T21:41:34.231Z,14.82
2023-12-14T21:44:02.716Z,14.82
2023-12-14T21:46:31.094Z,15.20
2023-12-14T21:49:09.746Z,15.77
2023-12-14T21:51:44.359Z,15.01
2023-12-14T21:54:14.293Z,16.91
2023-12-14T21:56:44.603Z,17.67
2023-12-14T21:59:15.228Z,17.29
2023-12-14T22:01:45.183Z,17.10
2023-12-14T22:04:15.116Z,15.58
2023-12-14T22:06:44.954Z,17.10
2023-12-14T22:09:16.805Z,18.24
2023-12-14T22:11:46.729Z,16.53
2023-12-14T22:14:16.607Z,16.72
2023-12-14T22:16:46.779Z,17.29
2023-12-14T22:19:16.654Z,16.34
2023-12-14T22:21:46.782Z,16.91
2023-12-14T22:24:16.702Z,15.96
2023-12-14T22:26:46.568Z,16.15
2023-12-14T22:29:16.403Z,17.48
2023-12-14T22:31:46.296Z,15.20
2023-12-14T22:34:16.094Z,16.72
2023-12-14T22:36:45.953Z,15.01
2023-12-14T22:39:15.946Z,16.34
2023-12-14T22:41:45.761Z,15.20
2023-12-14T22:44:16.026Z,17.86
2023-12-14T22:46:45.952Z,17.67
2023-12-14T22:49:16.080Z,14.82
2023-12-14T22:51:46.294Z,15.39
2023-12-14T22:54:16.075Z,15.39
2023-12-14T22:56:45.812Z,17.29
2023-12-14T22:59:14.438Z,15.58
2023-12-14T23:01:42.953Z,15.58
2023-12-14T23:04:11.219Z,16.53
2023-12-14T23:06:39.608Z,16.91
2023-12-14T23:09:08.061Z,15.58
2023-12-14T23:11:36.668Z,16.91
2023-12-14T23:14:04.964Z,16.72
2023-12-14T23:16:33.412Z,15.77
2023-12-14T23:19:01.848Z,15.77
2023-12-14T23:21:30.112Z,15.20
2023-12-14T23:23:58.624Z,15.77
2023-12-14T23:26:26.953Z,15.96
2023-12-14T23:28:55.526Z,16.34
2023-12-14T23:31:23.697Z,13.49
2023-12-14T23:33:52.366Z,15.01
2023-12-14T23:36:20.487Z,15.58
2023-12-14T23:38:48.965Z,16.72
2023-12-14T23:41:17.371Z,17.29
2023-12-14T23:43:45.851Z,15.39
2023-12-14T23:46:14.615Z,14.44
2023-12-14T23:48:44.945Z,15.77
2023-12-14T23:51:14.038Z,16.34
2023-12-14T23:53:42.538Z,15.77
2023-12-14T23:56:10.843Z,16.91
2023-12-14T23:58:40.671Z,17.29
